Time;durP1;ratioP1;P1;durP2;ratioP2;P2;SDS_P1;SDS_P2;PMS_P1;PMS_P2;Temp;Humidity;BMP_temperature;BMP_pressure;BME280_temperature;BME280_humidity;BME280_pressure;Samples;Min_cycle;Max_cycle;Signal;HPM_P1;HPM_P2
2024/01/30 00:01:31;;;;;;;4.70;3.47;;;;;2.00;97262.00;;;;5074286;28;20241;-58
2024/01/30 00:03:58;;;;;;;6.07;3.57;;;;;2.10;97257.00;;;;5073752;28;20195;-58
2024/01/30 00:06:25;;;;;;;3.93;2.17;;;;;2.10;97248.00;;;;5075087;28;20195;-58
2024/01/30 00:08:54;;;;;;;4.27;3.87;;;;;2.00;97243.00;;;;5075305;28;20183;-58
2024/01/30 00:11:22;;;;;;;1.60;1.50;;;;;2.10;97255.00;;;;5075877;28;20196;-58
2024/01/30 00:13:49;;;;;;;4.50;2.37;;;;;2.10;97240.00;;;;5074246;28;20214;-58
2024/01/30 00:16:23;;;;;;;3.10;2.83;;;;;2.10;97246.00;;;;5073280;28;20246;-58
2024/01/30 00:18:51;;;;;;;3.73;2.83;;;;;2.10;97236.00;;;;5075551;28;20199;-58
2024/01/30 00:21:19;;;;;;;4.17;3.40;;;;;2.00;97247.00;;;;5075983;28;20218;-58
2024/01/30 00:23:46;;;;;;;2.10;2.00;;;;;2.00;97243.00;;;;5073624;28;20272;-58
2024/01/30 00:26:15;;;;;;;3.23;2.47;;;;;2.00;97252.00;;;;5073973;28;20203;-58
2024/01/30 00:28:43;;;;;;;2.37;2.17;;;;;2.10;97260.00;;;;5073608;28;20274;-58
2024/01/30 00:31:12;;;;;;;2.47;2.23;;;;;2.00;97253.00;;;;5074410;28;20198;-58
2024/01/30 00:33:39;;;;;;;2.43;2.13;;;;;2.00;97261.00;;;;5074687;28;20239;-58
2024/01/30 00:36:11;;;;;;;1.43;1.33;;;;;1.90;97256.00;;;;5075299;28;20190;-58
2024/01/30 00:38:52;;;;;;;3.00;2.70;;;;;1.80;97266.00;;;;5075471;28;20282;-58
2024/01/30 00:41:21;;;;;;;5.00;2.57;;;;;1.80;97261.00;;;;5073644;28;20241;-58
2024/01/30 00:43:48;;;;;;;2.00;1.90;;;;;1.70;97258.00;;;;5074073;28;20211;-58
2024/01/30 00:46:15;;;;;;;3.23;2.40;;;;;1.70;97254.00;;;;5073431;28;20668;-58
2024/01/30 00:48:43;;;;;;;3.00;2.63;;;;;1.60;97255.00;;;;5074840;28;20669;-58
2024/01/30 00:51:11;;;;;;;7.97;2.40;;;;;1.70;97248.00;;;;5056262;28;20192;-59
2024/01/30 00:53:44;;;;;;;2.07;1.97;;;;;1.60;97254.00;;;;5074987;28;20218;-59
2024/01/30 00:56:11;;;;;;;3.23;2.93;;;;;1.70;97245.00;;;;5075831;28;20635;-58
2024/01/30 00:58:40;;;;;;;2.87;2.17;;;;;1.70;97245.00;;;;5077562;28;20230;-59
2024/01/30 01:01:08;;;;;;;3.10;2.47;;;;;1.60;97242.00;;;;5078429;28;20191;-58
2024/01/30 01:03:37;;;;;;;2.33;2.13;;;;;1.70;97238.00;;;;5060419;28;20243;-60
2024/01/30 01:06:05;;;;;;;2.67;2.43;;;;;1.80;97252.00;;;;5078281;28;20196;-58
2024/01/30 01:08:33;;;;;;;1.67;1.57;;;;;1.70;97240.00;;;;5077714;28;20191;-58
2024/01/30 01:11:00;;;;;;;2.87;2.67;;;;;1.70;97241.00;;;;5076550;28;20196;-58
2024/01/30 01:13:27;;;;;;;1.97;1.87;;;;;1.70;97245.00;;;;5077395;28;20571;-58
2024/01/30 01:15:56;;;;;;;2.17;2.07;;;;;1.70;97245.00;;;;5077809;28;20203;-58
2024/01/30 01:18:24;;;;;;;1.87;1.77;;;;;1.20;97238.00;;;;5079624;28;20219;-58
2024/01/30 01:20:51;;;;;;;1.90;1.80;;;;;1.30;97229.00;;;;5077690;28;20279;-58
2024/01/30 01:23:18;;;;;;;4.50;3.13;;;;;1.20;97241.00;;;;5077149;28;20207;-58
2024/01/30 01:25:46;;;;;;;14.63;1.73;;;;;1.20;97246.00;;;;5076261;28;20187;-57
2024/01/30 01:28:13;;;;;;;1.47;1.40;;;;;1.20;97237.00;;;;5077002;28;20191;-59
2024/01/30 01:30:41;;;;;;;2.17;2.07;;;;;1.30;97241.00;;;;5076127;28;20670;-58
2024/01/30 01:33:13;;;;;;;2.50;2.30;;;;;1.40;97252.00;;;;5076875;28;20225;-58
2024/01/30 01:35:40;;;;;;;2.27;1.83;;;;;1.30;97242.00;;;;5076851;28;20184;-57
2024/01/30 01:38:08;;;;;;;2.23;2.03;;;;;1.10;97249.00;;;;5075923;28;20230;-58
2024/01/30 01:40:35;;;;;;;2.10;1.97;;;;;1.20;97240.00;;;;5076824;28;20195;-57
2024/01/30 01:43:05;;;;;;;2.83;2.40;;;;;1.20;97243.00;;;;5076679;28;20364;-58
2024/01/30 01:45:32;;;;;;;3.80;2.03;;;;;1.20;97242.00;;;;5076906;28;20627;-59
2024/01/30 01:48:00;;;;;;;2.40;2.20;;;;;1.20;97239.00;;;;5076058;28;20689;-57
2024/01/30 01:50:29;;;;;;;1.90;1.73;;;;;1.20;97239.00;;;;5076301;28;20662;-57
2024/01/30 01:52:56;;;;;;;7.33;2.83;;;;;1.20;97236.00;;;;5076547;28;20295;-57
2024/01/30 01:55:25;;;;;;;2.87;2.67;;;;;1.20;97239.00;;;;5076082;28;20194;-58
2024/01/30 01:57:54;;;;;;;2.10;1.90;;;;;1.20;97239.00;;;;5076067;28;20195;-56
2024/01/30 02:00:21;;;;;;;3.30;3.00;;;;;1.20;97239.00;;;;5075444;28;20194;-57
2024/01/30 02:02:50;;;;;;;2.03;1.93;;;;;1.30;97236.00;;;;5075815;28;20211;-57
2024/01/30 02:05:18;;;;;;;3.53;2.43;;;;;1.30;97244.00;;;;5075966;28;20529;-56
2024/01/30 02:07:46;;;;;;;2.43;2.23;;;;;1.00;97237.00;;;;5075073;28;20195;-57
2024/01/30 02:10:16;;;;;;;2.93;1.57;;;;;0.90;97237.00;;;;5076523;28;20195;-57
2024/01/30 02:12:43;;;;;;;1.27;1.23;;;;;1.10;97241.00;;;;5077244;28;20211;-57
2024/01/30 02:15:14;;;;;;;1.63;1.57;;;;;1.10;97236.00;;;;5074977;28;20202;-57
2024/01/30 02:17:41;;;;;;;2.27;2.03;;;;;1.00;97239.00;;;;5075356;28;20628;-62
2024/01/30 02:20:12;;;;;;;2.90;2.70;;;;;1.00;97233.00;;;;5079068;28;20215;-57
2024/01/30 02:22:44;;;;;;;3.37;2.80;;;;;1.00;97241.00;;;;5079176;28;20309;-58
2024/01/30 02:25:11;;;;;;;2.40;2.20;;;;;1.10;97243.00;;;;5078604;28;20538;-57
2024/01/30 02:27:38;;;;;;;1.40;1.40;;;;;1.10;97244.00;;;;5077507;28;20655;-59
2024/01/30 02:30:07;;;;;;;3.07;2.23;;;;;1.00;97244.00;;;;5076650;28;20702;-57
2024/01/30 02:32:34;;;;;;;1.80;1.70;;;;;1.00;97247.00;;;;5075780;28;20222;-58
2024/01/30 02:35:02;;;;;;;1.20;1.13;;;;;1.00;97248.00;;;;5075771;28;20211;-58
2024/01/30 02:37:30;;;;;;;3.60;2.83;;;;;0.90;97248.00;;;;5075416;28;20191;-57
2024/01/30 02:39:59;;;;;;;1.00;1.00;;;;;0.80;97235.00;;;;5077647;28;20212;-58
2024/01/30 02:42:27;;;;;;;3.50;2.30;;;;;0.60;97242.00;;;;5077721;28;20210;-57
2024/01/30 02:44:55;;;;;;;1.50;1.40;;;;;0.60;97248.00;;;;5078238;28;20191;-57
2024/01/30 02:47:22;;;;;;;1.40;1.40;;;;;0.50;97246.00;;;;5076218;28;20205;-58
2024/01/30 02:49:49;;;;;;;1.30;1.30;;;;;0.50;97245.00;;;;5078710;28;20207;-58
2024/01/30 02:52:17;;;;;;;1.50;1.40;;;;;0.60;97252.00;;;;5074911;28;20226;-58
2024/01/30 02:54:44;;;;;;;2.43;2.30;;;;;0.70;97245.00;;;;5074661;28;20191;-58
2024/01/30 02:57:13;;;;;;;1.43;1.43;;;;;0.70;97245.00;;;;5074308;28;20531;-58
2024/01/30 02:59:40;;;;;;;2.77;2.57;;;;;0.70;97243.00;;;;5074302;28;20223;-58
2024/01/30 03:02:11;;;;;;;2.13;2.03;;;;;0.70;97249.00;;;;5075007;28;20631;-57
2024/01/30 03:04:38;;;;;;;2.07;1.97;;;;;0.70;97242.00;;;;5075077;28;20319;-58
2024/01/30 03:07:05;;;;;;;2.50;2.30;;;;;0.80;97243.00;;;;5075336;28;20195;-58
2024/01/30 03:09:33;;;;;;;2.27;2.07;;;;;0.80;97252.00;;;;5074831;28;20188;-58
2024/01/30 03:12:05;;;;;;;1.60;1.50;;;;;0.80;97238.00;;;;5074317;28;20214;-57
2024/01/30 03:14:34;;;;;;;1.90;1.80;;;;;0.80;97241.00;;;;5074465;28;20177;-57
2024/01/30 03:17:01;;;;;;;2.37;2.23;;;;;0.80;97241.00;;;;5074063;28;20199;-58
2024/01/30 03:19:29;;;;;;;2.20;2.10;;;;;0.80;97240.00;;;;5073500;28;20689;-57
2024/01/30 03:21:57;;;;;;;5.13;2.13;;;;;0.80;97240.00;;;;5074369;28;20214;-58
2024/01/30 03:24:26;;;;;;;1.50;1.40;;;;;0.80;97241.00;;;;5056243;28;20203;-57
2024/01/30 03:26:54;;;;;;;2.07;1.97;;;;;0.90;97239.00;;;;5075083;28;20372;-59
2024/01/30 03:29:21;;;;;;;1.93;1.80;;;;;0.80;97230.00;;;;5073659;28;20544;-57
2024/01/30 03:31:50;;;;;;;2.50;1.83;;;;;0.80;97232.00;;;;5074541;28;20257;-57
2024/01/30 03:34:18;;;;;;;1.90;1.73;;;;;0.80;97234.00;;;;5074462;28;20248;-57
2024/01/30 03:36:45;;;;;;;3.03;1.87;;;;;0.70;97232.00;;;;5073963;28;20590;-58
2024/01/30 03:39:12;;;;;;;2.67;2.27;;;;;0.70;97230.00;;;;5074003;28;20686;-57
2024/01/30 03:41:42;;;;;;;4.13;2.70;;;;;0.70;97235.00;;;;5076121;28;20191;-57
2024/01/30 03:44:10;;;;;;;1.90;1.73;;;;;0.70;97227.00;;;;5074585;28;20210;-59
2024/01/30 03:46:37;;;;;;;3.40;2.33;;;;;0.70;97227.00;;;;5073598;28;20196;-58
2024/01/30 03:49:06;;;;;;;3.07;2.17;;;;;0.60;97234.00;;;;5073607;28;20550;-57
2024/01/30 03:51:33;;;;;;;2.43;2.10;;;;;0.60;97239.00;;;;5073444;28;20567;-57
2024/01/30 03:54:01;;;;;;;2.30;2.10;;;;;0.70;97231.00;;;;5056282;28;20589;-57
2024/01/30 03:56:29;;;;;;;2.33;2.13;;;;;0.70;97227.00;;;;5073711;28;20223;-57
2024/01/30 03:58:56;;;;;;;2.00;1.57;;;;;0.70;97234.00;;;;5074353;28;20211;-58
2024/01/30 04:01:24;;;;;;;2.60;2.40;;;;;0.60;97228.00;;;;5073582;28;20220;-58
2024/01/30 04:03:51;;;;;;;3.70;2.70;;;;;0.80;97228.00;;;;5073718;28;20234;-57
2024/01/30 04:06:20;;;;;;;2.37;2.17;;;;;0.70;97227.00;;;;5073465;28;20558;-58
2024/01/30 04:08:47;;;;;;;2.40;2.20;;;;;0.60;97237.00;;;;5073220;28;20206;-57
2024/01/30 04:11:15;;;;;;;8.40;1.77;;;;;0.60;97225.00;;;;5073483;28;20203;-57
2024/01/30 04:13:48;;;;;;;2.57;2.37;;;;;0.60;97230.00;;;;5074346;28;20210;-57
2024/01/30 04:16:21;;;;;;;3.10;2.37;;;;;0.60;97236.00;;;;5073048;28;20211;-57
2024/01/30 04:18:49;;;;;;;3.43;3.00;;;;;0.50;97232.00;;;;5073227;28;20199;-58
2024/01/30 04:21:16;;;;;;;4.97;2.40;;;;;0.60;97238.00;;;;5073086;28;20191;-57
2024/01/30 04:23:45;;;;;;;2.30;2.10;;;;;0.60;97242.00;;;;5074738;28;20615;-57
2024/01/30 04:26:12;;;;;;;2.07;1.97;;;;;0.60;97235.00;;;;5056689;28;20237;-57
2024/01/30 04:28:41;;;;;;;6.00;1.73;;;;;0.60;97229.00;;;;5072958;28;20194;-57
2024/01/30 04:31:09;;;;;;;1.77;1.67;;;;;0.60;97235.00;;;;5077516;28;20202;-57
2024/01/30 04:33:36;;;;;;;2.63;2.43;;;;;0.50;97239.00;;;;5077733;28;20225;-57
2024/01/30 04:36:11;;;;;;;3.73;1.97;;;;;0.50;97239.00;;;;5079456;28;20199;-57
2024/01/30 04:38:40;;;;;;;1.33;1.23;;;;;0.50;97241.00;;;;5083217;28;20186;-57
2024/01/30 04:41:09;;;;;;;3.67;1.90;;;;;0.60;97233.00;;;;5081748;28;20211;-58
2024/01/30 04:43:36;;;;;;;1.90;1.80;;;;;0.60;97242.00;;;;5078181;28;20221;-58
2024/01/30 04:46:04;;;;;;;1.97;1.83;;;;;0.50;97238.00;;;;5078561;28;20195;-58
2024/01/30 04:48:32;;;;;;;1.87;1.53;;;;;0.50;97233.00;;;;5077026;28;20195;-57
2024/01/30 04:51:02;;;;;;;2.13;1.90;;;;;0.60;97233.00;;;;5077371;28;20187;-57
2024/01/30 04:53:32;;;;;;;1.47;1.37;;;;;0.60;97219.00;;;;5076829;28;20230;-57
2024/01/30 04:56:00;;;;;;;1.93;1.83;;;;;0.40;97222.00;;;;5078429;28;20198;-58
2024/01/30 04:58:28;;;;;;;1.70;1.60;;;;;0.50;97235.00;;;;5078231;28;20198;-58
2024/01/30 05:00:56;;;;;;;2.10;1.70;;;;;0.50;97229.00;;;;5060735;28;20228;-57
2024/01/30 05:03:24;;;;;;;1.87;1.67;;;;;0.40;97226.00;;;;5077684;28;20215;-57
2024/01/30 05:05:51;;;;;;;1.83;1.73;;;;;0.40;97224.00;;;;5078411;28;20198;-57
2024/01/30 05:08:18;;;;;;;1.43;1.37;;;;;0.30;97235.00;;;;5078443;28;20195;-58
2024/01/30 05:10:46;;;;;;;1.37;1.27;;;;;0.30;97229.00;;;;5078364;28;20528;-58
2024/01/30 05:13:14;;;;;;;2.63;2.43;;;;;0.10;97236.00;;;;5078253;28;20717;-58
2024/01/30 05:15:42;;;;;;;1.00;1.00;;;;;0.20;97230.00;;;;5078838;28;20690;-59
2024/01/30 05:18:10;;;;;;;1.63;1.53;;;;;0.20;97233.00;;;;5078021;28;20209;-59
2024/01/30 05:20:37;;;;;;;2.07;1.87;;;;;0.20;97225.00;;;;5077934;28;20268;-57
2024/01/30 05:23:05;;;;;;;9.40;4.90;;;;;0.20;97225.00;;;;5059846;28;20594;-57
2024/01/30 05:25:34;;;;;;;5.10;4.50;;;;;0.30;97236.00;;;;5078363;28;20198;-59
2024/01/30 05:28:01;;;;;;;4.43;3.97;;;;;0.10;97236.00;;;;5077323;28;20289;-58
2024/01/30 05:30:29;;;;;;;3.20;2.93;;;;;0.00;97233.00;;;;5076526;28;20550;-58
2024/01/30 05:32:57;;;;;;;2.57;2.37;;;;;0.00;97235.00;;;;5076590;28;20229;-58
2024/01/30 05:35:25;;;;;;;2.47;2.17;;;;;0.10;97236.00;;;;5077404;28;20191;-58
2024/01/30 05:37:52;;;;;;;4.80;2.83;;;;;0.10;97239.00;;;;5077511;28;20199;-58
2024/01/30 05:40:19;;;;;;;3.07;2.77;;;;;0.20;97231.00;;;;5075807;28;20222;-58
2024/01/30 05:42:47;;;;;;;2.10;1.90;;;;;0.10;97252.00;;;;5076577;28;20218;-58
2024/01/30 05:45:14;;;;;;;2.50;2.20;;;;;0.20;97241.00;;;;5078039;28;20297;-58
2024/01/30 05:47:42;;;;;;;1.30;1.20;;;;;0.30;97242.00;;;;5076503;28;20194;-58
2024/01/30 05:50:11;;;;;;;2.27;2.13;;;;;0.30;97254.00;;;;5076902;28;20198;-59
2024/01/30 05:52:38;;;;;;;2.17;1.87;;;;;0.20;97241.00;;;;5075709;28;20211;-60
2024/01/30 05:55:06;;;;;;;2.40;2.30;;;;;0.30;97246.00;;;;5078729;28;20199;-60
2024/01/30 05:57:38;;;;;;;4.53;2.97;;;;;0.30;97254.00;;;;5077738;28;20199;-58
2024/01/30 06:00:09;;;;;;;3.57;3.27;;;;;0.20;97245.00;;;;5075976;28;20567;-59
2024/01/30 06:02:37;;;;;;;3.90;3.27;;;;;0.20;97248.00;;;;5076292;28;20213;-59
2024/01/30 06:05:05;;;;;;;2.37;2.17;;;;;0.30;97258.00;;;;5076662;28;20205;-59
2024/01/30 06:07:36;;;;;;;3.07;2.87;;;;;0.30;97259.00;;;;5076442;28;20573;-59
2024/01/30 06:10:08;;;;;;;5.87;2.67;;;;;0.20;97252.00;;;;5077563;28;20172;-59
2024/01/30 06:12:36;;;;;;;2.60;2.40;;;;;0.20;97260.00;;;;5076465;28;20215;-59
2024/01/30 06:15:09;;;;;;;3.60;2.10;;;;;0.20;97254.00;;;;5075328;28;20209;-59
2024/01/30 06:17:37;;;;;;;2.17;1.93;;;;;0.60;97256.00;;;;5075716;28;20264;-59
2024/01/30 06:20:10;;;;;;;3.23;2.97;;;;;0.80;97255.00;;;;5076064;28;20269;-59
2024/01/30 06:22:39;;;;;;;7.83;3.57;;;;;1.00;97264.00;;;;5059429;28;20694;-59
2024/01/30 06:25:07;;;;;;;3.43;3.13;;;;;0.90;97247.00;;;;5076441;28;20201;-58
2024/01/30 06:27:34;;;;;;;4.07;3.30;;;;;1.20;97260.00;;;;5075134;28;20194;-59
2024/01/30 06:30:01;;;;;;;7.13;2.33;;;;;1.10;97249.00;;;;5075409;28;20194;-60
2024/01/30 06:32:34;;;;;;;3.37;3.10;;;;;0.90;97258.00;;;;5075985;28;20210;-59
2024/01/30 06:35:01;;;;;;;2.93;2.33;;;;;0.80;97249.00;;;;5058727;28;20208;-58
2024/01/30 06:37:29;;;;;;;5.50;3.27;;;;;0.60;97256.00;;;;5075517;28;20195;-58
2024/01/30 06:39:57;;;;;;;4.03;2.17;;;;;0.60;97254.00;;;;5075482;28;20249;-60
2024/01/30 06:42:25;;;;;;;2.90;2.70;;;;;0.50;97253.00;;;;5074705;28;20212;-57
2024/01/30 06:44:52;;;;;;;3.17;2.87;;;;;0.40;97265.00;;;;5075786;28;20195;-56
2024/01/30 06:47:20;;;;;;;4.20;3.40;;;;;0.40;97255.00;;;;5075848;28;20196;-57
2024/01/30 06:49:47;;;;;;;1.67;1.57;;;;;0.30;97261.00;;;;5058614;28;20190;-57
2024/01/30 06:52:15;;;;;;;4.60;3.33;;;;;0.30;97267.00;;;;5075654;28;20218;-57
2024/01/30 06:54:42;;;;;;;7.93;3.70;;;;;0.20;97272.00;;;;5075835;28;20190;-57
2024/01/30 06:57:12;;;;;;;5.10;3.97;;;;;0.30;97266.00;;;;5075472;28;20232;-58
2024/01/30 06:59:43;;;;;;;2.47;2.27;;;;;0.30;97265.00;;;;5074800;28;20226;-58
2024/01/30 07:02:10;;;;;;;3.23;2.93;;;;;0.10;97258.00;;;;5075459;28;20218;-58
2024/01/30 07:04:39;;;;;;;2.80;2.20;;;;;0.20;97258.00;;;;5074921;28;20229;-58
2024/01/30 07:07:15;;;;;;;5.00;3.13;;;;;0.20;97268.00;;;;5076147;28;20290;-60
2024/01/30 07:09:56;;;;;;;2.47;2.07;;;;;0.00;97271.00;;;;5075346;28;20533;-58
2024/01/30 07:12:25;;;;;;;2.97;2.67;;;;;0.00;97276.00;;;;5075560;28;20233;-59
2024/01/30 07:14:53;;;;;;;7.40;4.63;;;;;0.10;97268.00;;;;5074726;28;20195;-61
2024/01/30 07:17:20;;;;;;;4.17;3.77;;;;;0.00;97268.00;;;;5074325;28;20183;-58
2024/01/30 07:19:48;;;;;;;2.77;2.57;;;;;0.00;97265.00;;;;5074331;28;20201;-60
2024/01/30 07:22:15;;;;;;;2.20;2.10;;;;;0.00;97268.00;;;;5074339;28;20217;-59
2024/01/30 07:24:47;;;;;;;3.23;3.00;;;;;0.10;97263.00;;;;5075522;28;20292;-59
2024/01/30 07:27:17;;;;;;;2.50;2.20;;;;;0.20;97268.00;;;;5074271;28;20187;-59
2024/01/30 07:29:46;;;;;;;3.30;3.00;;;;;0.30;97273.00;;;;5074376;28;20195;-59
2024/01/30 07:32:13;;;;;;;1.63;1.53;;;;;0.50;97276.00;;;;5074582;28;20709;-59
2024/01/30 07:34:40;;;;;;;4.90;4.17;;;;;0.50;97273.00;;;;5074645;28;20201;-59
2024/01/30 07:37:09;;;;;;;11.00;2.60;;;;;0.50;97268.00;;;;5070294;28;20202;-60
2024/01/30 07:39:37;;;;;;;4.20;2.13;;;;;0.40;97267.00;;;;5069851;28;20206;-61
2024/01/30 07:42:04;;;;;;;4.13;3.00;;;;;0.50;97279.00;;;;5071881;28;20389;-61
2024/01/30 07:44:32;;;;;;;2.13;1.97;;;;;0.40;97276.00;;;;5074465;28;20195;-61
2024/01/30 07:47:01;;;;;;;4.47;3.20;;;;;0.50;97278.00;;;;5072302;28;20604;-61
2024/01/30 07:49:28;;;;;;;8.50;1.87;;;;;0.60;97273.00;;;;5071539;28;20682;-59
2024/01/30 07:51:56;;;;;;;2.87;2.10;;;;;0.60;97271.00;;;;5053727;28;20214;-57
2024/01/30 07:54:23;;;;;;;1.70;1.60;;;;;0.70;97264.00;;;;5071123;28;20663;-59
2024/01/30 07:56:51;;;;;;;1.43;1.37;;;;;0.80;97267.00;;;;5071579;28;20203;-58
2024/01/30 07:59:21;;;;;;;1.80;1.70;;;;;0.80;97276.00;;;;5072867;28;20580;-58
2024/01/30 08:01:48;;;;;;;1.60;1.50;;;;;0.80;97285.00;;;;5071635;28;20235;-58
2024/01/30 08:04:18;;;;;;;2.93;1.57;;;;;0.90;97282.00;;;;5070765;28;20673;-57
2024/01/30 08:06:45;;;;;;;3.20;2.90;;;;;0.70;97280.00;;;;5071513;28;20647;-57
2024/01/30 08:09:13;;;;;;;4.00;3.43;;;;;0.90;97274.00;;;;5053670;28;20198;-58
2024/01/30 08:11:40;;;;;;;5.60;4.47;;;;;1.00;97273.00;;;;5068627;28;20229;-58
2024/01/30 08:14:07;;;;;;;5.40;5.00;;;;;1.10;97273.00;;;;5092705;22;20693;-59
2024/01/30 08:16:38;;;;;;;9.77;4.47;;;;;1.20;97267.00;;;;5072571;28;20557;-60
2024/01/30 08:19:05;;;;;;;3.90;3.60;;;;;1.40;97275.00;;;;5091393;28;20574;-61
2024/01/30 08:21:36;;;;;;;6.67;4.30;;;;;1.50;97269.00;;;;5090579;28;20214;-60
2024/01/30 08:24:04;;;;;;;4.30;3.90;;;;;1.50;97267.00;;;;5091512;28;20197;-60
2024/01/30 08:26:32;;;;;;;8.53;4.00;;;;;1.70;97261.00;;;;5091240;28;20209;-60
2024/01/30 08:29:00;;;;;;;6.60;5.33;;;;;1.70;97270.00;;;;5087475;28;20198;-61
2024/01/30 08:31:27;;;;;;;3.67;3.37;;;;;1.80;97275.00;;;;5091184;28;20666;-61
2024/01/30 08:33:55;;;;;;;3.13;2.77;;;;;1.90;97276.00;;;;5091187;28;20684;-60
2024/01/30 08:36:22;;;;;;;1.97;1.87;;;;;1.90;97266.00;;;;5090654;28;20658;-60
2024/01/30 08:38:54;;;;;;;2.60;2.40;;;;;2.00;97274.00;;;;5092663;28;20187;-62
2024/01/30 08:41:21;;;;;;;1.60;1.50;;;;;2.00;97282.00;;;;5091129;28;20221;-59
2024/01/30 08:43:49;;;;;;;2.47;2.27;;;;;2.00;97280.00;;;;5089212;28;20218;-60
2024/01/30 08:46:19;;;;;;;2.00;1.90;;;;;2.10;97276.00;;;;5090780;28;20199;-61
2024/01/30 08:48:47;;;;;;;2.83;2.63;;;;;2.30;97282.00;;;;5091364;28;20194;-60
2024/01/30 08:51:15;;;;;;;2.07;1.97;;;;;2.20;97277.00;;;;5090090;28;20194;-61
2024/01/30 08:53:42;;;;;;;2.10;2.00;;;;;2.30;97276.00;;;;5090457;28;20290;-60
2024/01/30 08:56:11;;;;;;;2.20;2.00;;;;;2.30;97272.00;;;;5090520;28;20562;-60
2024/01/30 08:58:39;;;;;;;2.53;2.33;;;;;2.40;97284.00;;;;5090139;28;20202;-60
2024/01/30 09:01:07;;;;;;;1.53;1.43;;;;;2.30;97272.00;;;;5090824;28;20297;-59
2024/01/30 09:03:34;;;;;;;5.10;3.83;;;;;2.40;97286.00;;;;5090403;28;20597;-60
2024/01/30 09:06:02;;;;;;;3.40;2.77;;;;;2.50;97280.00;;;;5091006;28;20198;-60
2024/01/30 09:08:32;;;;;;;2.00;1.80;;;;;2.60;97281.00;;;;5090217;28;20211;-60
2024/01/30 09:11:00;;;;;;;1.90;1.80;;;;;2.40;97276.00;;;;5089725;28;20202;-60
2024/01/30 09:13:28;;;;;;;2.00;1.90;;;;;2.60;97285.00;;;;5089368;28;20222;-59
2024/01/30 09:15:56;;;;;;;2.27;2.10;;;;;2.70;97280.00;;;;5091676;28;20206;-61
2024/01/30 09:18:23;;;;;;;2.50;2.30;;;;;2.80;97278.00;;;;5094051;28;20220;-60
2024/01/30 09:20:51;;;;;;;2.83;2.10;;;;;3.00;97276.00;;;;5094495;28;20230;-61
2024/01/30 09:23:19;;;;;;;2.87;2.60;;;;;2.90;97277.00;;;;5093743;28;20219;-60
2024/01/30 09:25:47;;;;;;;2.80;2.50;;;;;3.00;97275.00;;;;5094577;28;20222;-62
2024/01/30 09:28:14;;;;;;;2.83;2.63;;;;;3.10;97281.00;;;;5094092;28;20199;-60
2024/01/30 09:30:43;;;;;;;2.57;2.37;;;;;3.20;97282.00;;;;5075833;28;20697;-59
2024/01/30 09:33:10;;;;;;;2.10;1.90;;;;;3.20;97286.00;;;;5093818;28;20221;-59
2024/01/30 09:35:38;;;;;;;1.87;1.77;;;;;3.10;97286.00;;;;5093852;28;20277;-59
2024/01/30 09:38:06;;;;;;;2.03;1.93;;;;;3.10;97289.00;;;;5093854;28;20222;-60
2024/01/30 09:40:33;;;;;;;2.63;2.43;;;;;3.20;97286.00;;;;5093613;28;20506;-60
2024/01/30 09:43:01;;;;;;;2.50;2.17;;;;;3.40;97297.00;;;;5093677;28;20217;-59
2024/01/30 09:45:28;;;;;;;3.43;1.93;;;;;3.30;97300.00;;;;5093655;28;20209;-59
2024/01/30 09:48:00;;;;;;;2.07;1.90;;;;;3.50;97305.00;;;;5093356;28;20290;-59
2024/01/30 09:50:28;;;;;;;1.30;1.30;;;;;3.50;97299.00;;;;5093960;28;20275;-59
2024/01/30 09:52:57;;;;;;;1.03;1.03;;;;;3.80;97298.00;;;;5094335;28;20225;-59
2024/01/30 09:55:26;;;;;;;1.87;1.77;;;;;3.80;97309.00;;;;5093495;28;20203;-59
2024/01/30 09:57:53;;;;;;;2.07;1.87;;;;;3.90;97304.00;;;;5094403;28;20204;-60
2024/01/30 10:00:26;;;;;;;4.40;2.47;;;;;4.00;97297.00;;;;5093356;28;20199;-59
2024/01/30 10:02:54;;;;;;;3.20;2.20;;;;;4.20;97306.00;;;;5093740;28;20210;-59
2024/01/30 10:05:29;;;;;;;1.83;1.50;;;;;4.40;97305.00;;;;5091953;28;20281;-60
2024/01/30 10:07:58;;;;;;;2.33;1.80;;;;;4.60;97308.00;;;;5093330;28;20669;-59
2024/01/30 10:10:26;;;;;;;1.20;1.20;;;;;4.70;97310.00;;;;5093354;28;20191;-59
2024/01/30 10:12:53;;;;;;;1.63;1.53;;;;;4.80;97297.00;;;;5093062;28;20206;-59
2024/01/30 10:15:21;;;;;;;4.20;1.57;;;;;4.90;97290.00;;;;5092908;28;20209;-59
2024/01/30 10:17:48;;;;;;;1.57;1.47;;;;;5.00;97302.00;;;;5075250;28;20202;-59
2024/01/30 10:20:17;;;;;;;1.97;1.80;;;;;5.10;97300.00;;;;5092697;28;20197;-59
2024/01/30 10:22:46;;;;;;;1.27;1.20;;;;;5.20;97294.00;;;;5093102;28;20229;-59
2024/01/30 10:25:13;;;;;;;3.40;2.73;;;;;5.30;97287.00;;;;5093038;28;20205;-60
2024/01/30 10:27:43;;;;;;;1.90;1.70;;;;;5.60;97289.00;;;;5092068;28;20305;-59
2024/01/30 10:30:11;;;;;;;2.03;1.80;;;;;5.70;97284.00;;;;5092970;28;20202;-59
2024/01/30 10:32:39;;;;;;;1.07;1.07;;;;;5.90;97285.00;;;;5092834;28;20210;-59
2024/01/30 10:35:07;;;;;;;2.60;1.63;;;;;6.10;97288.00;;;;5092786;28;20691;-59
2024/01/30 10:37:35;;;;;;;6.93;2.37;;;;;6.20;97289.00;;;;5092811;28;20211;-59
2024/01/30 10:40:05;;;;;;;1.60;1.50;;;;;6.30;97287.00;;;;5092772;28;20244;-59
2024/01/30 10:42:33;;;;;;;1.67;1.57;;;;;6.40;97291.00;;;;5091107;28;20259;-59
2024/01/30 10:45:12;;;;;;;1.30;1.20;;;;;6.40;97284.00;;;;5092654;28;20205;-59
2024/01/30 10:47:42;;;;;;;1.63;1.53;;;;;6.40;97286.00;;;;5088266;28;20190;-60
2024/01/30 10:50:10;;;;;;;1.40;1.30;;;;;6.10;97286.00;;;;5092776;28;20204;-59
2024/01/30 10:52:38;;;;;;;3.70;1.60;;;;;6.20;97281.00;;;;5092505;28;20221;-59
2024/01/30 10:55:09;;;;;;;1.87;1.77;;;;;6.30;97285.00;;;;5092526;28;20251;-59
2024/01/30 10:57:37;;;;;;;1.30;1.30;;;;;6.50;97280.00;;;;5092428;28;20247;-59
2024/01/30 11:00:10;;;;;;;2.10;2.00;;;;;6.70;97270.00;;;;5092467;28;20197;-59
2024/01/30 11:02:39;;;;;;;1.73;1.63;;;;;6.90;97280.00;;;;5092403;28;20272;-59
2024/01/30 11:05:08;;;;;;;2.10;2.00;;;;;7.10;97268.00;;;;5092395;28;20202;-59
2024/01/30 11:07:36;;;;;;;1.60;1.50;;;;;7.30;97263.00;;;;5092226;28;20197;-59
2024/01/30 11:10:04;;;;;;;1.70;1.60;;;;;7.40;97263.00;;;;5091842;28;20205;-59
2024/01/30 11:12:34;;;;;;;1.50;1.40;;;;;7.60;97275.00;;;;5090781;28;20215;-59
2024/01/30 11:15:06;;;;;;;1.83;1.40;;;;;7.30;97265.00;;;;5091428;28;20233;-59
2024/01/30 11:17:51;;;;;;;1.97;1.43;;;;;7.50;97263.00;;;;5092346;28;20662;-60
2024/01/30 11:20:21;;;;;;;3.57;2.47;;;;;7.60;97262.00;;;;5088488;28;20190;-60
2024/01/30 11:22:50;;;;;;;1.57;1.47;;;;;7.70;97265.00;;;;5091732;28;20229;-60
2024/01/30 11:25:20;;;;;;;2.47;2.27;;;;;7.70;97264.00;;;;5091896;28;20685;-65
2024/01/30 11:27:51;;;;;;;1.40;1.37;;;;;7.90;97268.00;;;;5092067;28;20206;-61
2024/01/30 11:30:26;;;;;;;1.57;1.47;;;;;7.90;97265.00;;;;5091735;28;20194;-61
2024/01/30 11:33:01;;;;;;;1.00;1.00;;;;;8.00;97260.00;;;;5091613;28;20219;-60
2024/01/30 11:35:30;;;;;;;1.17;1.17;;;;;8.30;97258.00;;;;5092268;28;20194;-60
2024/01/30 11:38:00;;;;;;;2.20;2.00;;;;;8.50;97259.00;;;;5091912;28;20191;-60
2024/01/30 11:40:30;;;;;;;3.73;1.63;;;;;8.70;97252.00;;;;5091742;28;20547;-60
2024/01/30 11:43:00;;;;;;;1.23;1.23;;;;;8.80;97258.00;;;;5091329;28;20708;-60
2024/01/30 11:45:31;;;;;;;1.90;1.80;;;;;9.10;97248.00;;;;5091174;28;20202;-59
2024/01/30 11:48:01;;;;;;;1.57;1.47;;;;;9.20;97247.00;;;;5091864;28;20194;-59
2024/01/30 11:50:28;;;;;;;7.03;2.27;;;;;9.40;97252.00;;;;5091223;28;20195;-60
2024/01/30 11:52:56;;;;;;;5.13;2.53;;;;;9.70;97247.00;;;;5091567;28;20215;-60
2024/01/30 11:55:25;;;;;;;1.93;1.70;;;;;10.00;97238.00;;;;5091051;28;20191;-61
2024/01/30 11:57:55;;;;;;;1.90;1.77;;;;;10.50;97223.00;;;;5091708;28;20199;-61
2024/01/30 12:00:25;;;;;;;2.03;1.83;;;;;11.10;97224.00;;;;5091531;28;20194;-60
2024/01/30 12:02:55;;;;;;;6.27;3.13;;;;;11.70;97228.00;;;;5091137;28;20225;-61
2024/01/30 12:05:23;;;;;;;1.63;1.53;;;;;13.00;97215.00;;;;5091414;28;20193;-61
2024/01/30 12:07:51;;;;;;;1.57;1.47;;;;;13.50;97201.00;;;;5091316;28;20202;-61
2024/01/30 12:10:19;;;;;;;2.00;1.90;;;;;14.10;97214.00;;;;5091324;28;20209;-61
2024/01/30 12:12:48;;;;;;;1.20;1.20;;;;;14.80;97219.00;;;;5091169;28;20287;-61
2024/01/30 12:15:16;;;;;;;2.20;1.93;;;;;15.00;97210.00;;;;5091014;28;20206;-62
2024/01/30 12:17:45;;;;;;;2.30;1.73;;;;;15.10;97212.00;;;;5091764;28;20199;-62
2024/01/30 12:20:14;;;;;;;1.50;1.40;;;;;15.30;97211.00;;;;5090747;28;20573;-61
2024/01/30 12:22:42;;;;;;;1.70;1.60;;;;;15.90;97191.00;;;;5091657;28;20218;-61
2024/01/30 12:25:10;;;;;;;1.70;1.60;;;;;17.30;97186.00;;;;5091133;28;20210;-61
2024/01/30 12:27:37;;;;;;;1.10;1.10;;;;;18.70;97171.00;;;;5091904;28;20553;-61
2024/01/30 12:30:07;;;;;;;1.40;1.30;;;;;19.70;97175.00;;;;5086486;28;20222;-61
2024/01/30 12:32:37;;;;;;;1.03;0.97;;;;;20.90;97168.00;;;;5090858;28;20207;-61